Time;durP1;ratioP1;P1;durP2;ratioP2;P2;SDS_P1;SDS_P2;PMS_P1;PMS_P2;Temp;Humidity;BMP_temperature;BMP_pressure;BME280_temperature;BME280_humidity;BME280_pressure;Samples;Min_cycle;Max_cycle;Signal;HPM_P1;HPM_P2
2023/01/16 00:00:59;;;;;;;5.78;3.50;;;5.00;99.90;;;;;;5040503;28;20488;-77
2023/01/16 00:03:25;;;;;;;7.35;3.33;;;5.00;99.90;;;;;;5040526;28;20127;-77
2023/01/16 00:05:51;;;;;;;5.22;3.55;;;5.00;99.90;;;;;;5043040;28;20956;-77
2023/01/16 00:08:16;;;;;;;6.38;3.33;;;5.10;99.90;;;;;;5039686;28;20044;-78
2023/01/16 00:10:43;;;;;;;5.97;3.53;;;5.10;99.90;;;;;;5038465;28;20038;-77
2023/01/16 00:13:11;;;;;;;6.50;3.55;;;5.00;99.90;;;;;;5042273;28;20550;-77
2023/01/16 00:15:36;;;;;;;6.20;3.90;;;5.00;99.90;;;;;;5042860;28;20068;-77
2023/01/16 00:18:02;;;;;;;9.60;4.30;;;5.00;99.90;;;;;;5040254;28;20076;-76
2023/01/16 00:20:28;;;;;;;9.95;4.15;;;5.00;99.90;;;;;;5042807;28;20048;-77
2023/01/16 00:22:53;;;;;;;8.13;4.38;;;5.10;99.90;;;;;;5039255;28;20049;-77
2023/01/16 00:25:19;;;;;;;6.10;4.30;;;4.90;99.90;;;;;;5042629;28;20140;-78
2023/01/16 00:27:45;;;;;;;7.72;4.80;;;5.00;99.90;;;;;;5043848;28;20037;-77
2023/01/16 00:30:10;;;;;;;7.93;4.28;;;5.00;99.90;;;;;;5041672;28;20045;-76
2023/01/16 00:32:36;;;;;;;7.07;4.30;;;5.00;99.90;;;;;;5043516;28;20051;-77
2023/01/16 00:35:03;;;;;;;7.82;4.25;;;5.00;99.90;;;;;;5039757;28;20056;-76
2023/01/16 00:37:28;;;;;;;8.57;4.30;;;5.10;99.90;;;;;;5037054;28;20029;-77
2023/01/16 00:39:54;;;;;;;6.50;4.10;;;5.00;99.90;;;;;;5039911;28;20048;-77
2023/01/16 00:42:20;;;;;;;8.90;4.13;;;5.10;99.90;;;;;;5041578;28;20049;-77
2023/01/16 00:44:45;;;;;;;8.23;4.28;;;5.00;99.90;;;;;;5042703;28;20045;-76
2023/01/16 00:47:11;;;;;;;10.35;4.82;;;5.10;99.90;;;;;;5040801;28;20051;-77
2023/01/16 00:49:37;;;;;;;8.43;6.00;;;5.00;99.90;;;;;;5040307;28;20148;-77
2023/01/16 00:52:03;;;;;;;9.90;5.60;;;5.10;99.90;;;;;;5043291;28;20500;-76
2023/01/16 00:54:28;;;;;;;12.65;5.70;;;5.00;99.90;;;;;;5046229;28;20040;-76
2023/01/16 00:56:54;;;;;;;11.15;6.35;;;5.00;99.90;;;;;;5044663;28;20037;-77
2023/01/16 00:59:19;;;;;;;11.27;6.88;;;5.00;99.90;;;;;;5041954;28;20045;-76
2023/01/16 01:01:45;;;;;;;13.00;7.05;;;5.00;99.90;;;;;;5044752;28;20119;-77
2023/01/16 01:04:12;;;;;;;12.10;7.05;;;4.90;99.90;;;;;;5048071;28;20048;-77
2023/01/16 01:06:38;;;;;;;10.98;6.78;;;4.90;99.90;;;;;;5043504;28;20095;-77
2023/01/16 01:09:03;;;;;;;15.95;7.43;;;5.10;99.90;;;;;;5042444;28;20110;-76
2023/01/16 01:11:29;;;;;;;13.88;7.32;;;5.00;99.90;;;;;;5046005;28;20107;-76
2023/01/16 01:13:55;;;;;;;14.80;7.63;;;4.90;99.90;;;;;;5044443;28;20053;-77
2023/01/16 01:16:20;;;;;;;12.57;6.32;;;5.00;99.90;;;;;;5043432;28;21210;-76
2023/01/16 01:18:46;;;;;;;13.52;6.95;;;5.10;99.90;;;;;;5025848;28;20048;-76
2023/01/16 01:21:12;;;;;;;11.48;6.93;;;5.00;99.90;;;;;;5044997;28;20045;-77
2023/01/16 01:23:37;;;;;;;9.25;6.30;;;4.90;99.90;;;;;;5047404;28;20619;-76
2023/01/16 01:26:11;;;;;;;12.95;6.57;;;5.00;99.90;;;;;;5041159;28;20040;-77
2023/01/16 01:28:37;;;;;;;11.05;6.68;;;5.00;99.90;;;;;;5046533;28;20041;-77
2023/01/16 01:31:08;;;;;;;9.50;6.00;;;4.90;99.90;;;;;;5040010;28;20808;-77
2023/01/16 01:33:34;;;;;;;11.80;6.75;;;4.90;99.90;;;;;;5042979;28;20054;-77
2023/01/16 01:36:00;;;;;;;13.70;6.00;;;4.80;99.90;;;;;;5044153;28;20037;-76
2023/01/16 01:38:25;;;;;;;16.52;7.95;;;4.90;99.90;;;;;;5041840;28;20052;-77
2023/01/16 01:40:51;;;;;;;13.25;6.22;;;4.80;99.90;;;;;;5041195;28;20140;-77
2023/01/16 01:43:17;;;;;;;11.27;5.45;;;4.80;99.90;;;;;;5044182;28;20515;-77
2023/01/16 01:45:53;;;;;;;10.65;5.47;;;4.80;99.90;;;;;;5045044;28;20048;-77
2023/01/16 01:48:33;;;;;;;9.68;5.70;;;4.80;99.90;;;;;;5042950;28;20520;-77
2023/01/16 01:51:03;;;;;;;9.30;5.65;;;4.80;99.90;;;;;;5045353;28;20102;-77
2023/01/16 01:53:35;;;;;;;9.65;5.45;;;4.80;99.90;;;;;;5045805;28;20060;-77
2023/01/16 01:56:08;;;;;;;9.87;5.53;;;4.70;99.90;;;;;;5038758;28;20048;-77
2023/01/16 01:58:35;;;;;;;11.38;5.60;;;4.70;99.90;;;;;;5046667;28;20342;-76
2023/01/16 02:01:01;;;;;;;12.95;6.03;;;4.80;99.90;;;;;;5045761;28;20045;-76
2023/01/16 02:03:50;;;;;;;13.88;5.88;;;4.80;99.90;;;;;;5041075;28;20048;-76
2023/01/16 02:06:21;;;;;;;13.00;6.13;;;4.70;99.90;;;;;;5044481;28;20075;-76
2023/01/16 02:08:51;;;;;;;11.55;5.65;;;4.70;99.90;;;;;;5045504;28;20087;-76
2023/01/16 02:11:30;;;;;;;10.35;5.38;;;4.70;99.90;;;;;;5043955;28;20055;-76
2023/01/16 02:13:59;;;;;;;16.92;6.43;;;4.60;99.90;;;;;;5044485;28;20077;-76
2023/01/16 02:19:22;;;;;;;11.25;5.35;;;4.50;99.90;;;;;;5045557;28;20047;-76
2023/01/16 02:21:58;;;;;;;12.05;5.28;;;4.70;99.90;;;;;;5044788;28;20048;-77
2023/01/16 02:24:48;;;;;;;10.63;5.65;;;4.60;99.90;;;;;;5043480;28;20068;-76
2023/01/16 02:27:40;;;;;;;12.43;5.28;;;4.60;99.90;;;;;;5036638;28;20515;-77
2023/01/16 02:30:41;;;;;;;11.55;5.18;;;4.60;99.90;;;;;;5042958;28;20499;-76
2023/01/16 02:33:28;;;;;;;10.75;5.05;;;4.40;99.90;;;;;;4998575;28;20056;-76
2023/01/16 02:36:11;;;;;;;14.98;5.28;;;4.30;99.90;;;;;;5041347;28;20175;-77
2023/01/16 02:39:03;;;;;;;10.02;5.07;;;4.30;99.90;;;;;;5044468;28;20400;-76
2023/01/16 02:41:49;;;;;;;9.90;4.80;;;4.30;99.90;;;;;;5038536;28;20666;-76
2023/01/16 02:44:32;;;;;;;12.55;5.05;;;4.30;99.90;;;;;;5044467;28;20041;-76
2023/01/16 02:47:15;;;;;;;9.15;4.90;;;4.20;99.90;;;;;;5043510;28;20053;-77
2023/01/16 02:49:46;;;;;;;12.98;5.75;;;4.10;99.90;;;;;;5039612;28;20045;-77
2023/01/16 02:52:21;;;;;;;11.68;4.93;;;4.20;99.90;;;;;;5043948;28;20052;-77
2023/01/16 02:54:59;;;;;;;9.68;5.00;;;4.10;99.90;;;;;;5042676;28;20053;-77
2023/01/16 02:57:29;;;;;;;13.35;5.35;;;4.10;99.90;;;;;;5039830;28;20099;-77
2023/01/16 02:59:55;;;;;;;10.90;5.70;;;4.10;99.90;;;;;;5040874;28;20037;-77
2023/01/16 03:02:21;;;;;;;10.43;4.90;;;4.00;99.90;;;;;;5041812;28;20067;-77
2023/01/16 03:04:48;;;;;;;10.32;5.57;;;3.90;99.90;;;;;;5038875;28;20053;-77
2023/01/16 03:07:32;;;;;;;12.93;5.78;;;3.80;99.90;;;;;;5044316;28;20068;-78
2023/01/16 03:10:16;;;;;;;;;;;3.80;99.90;;;;;;5041669;28;20049;-77
2023/01/16 03:13:12;;;;;;;12.82;5.35;;;3.80;99.90;;;;;;5039197;28;19929;-77
2023/01/16 03:16:09;;;;;;;12.25;5.97;;;3.80;99.90;;;;;;5040763;28;20135;-77
2023/01/16 03:18:57;;;;;;;10.38;6.70;;;3.60;99.90;;;;;;5045894;28;20049;-77
2023/01/16 03:21:38;;;;;;;12.05;6.00;;;3.70;99.90;;;;;;5043372;28;20094;-77
2023/01/16 03:24:15;;;;;;;12.75;6.75;;;3.60;99.90;;;;;;5044957;28;20040;-78
2023/01/16 03:26:46;;;;;;;9.43;5.97;;;3.50;99.90;;;;;;5043931;28;20038;-77
2023/01/16 03:29:23;;;;;;;13.63;6.28;;;3.60;99.90;;;;;;5042954;28;20400;-78
2023/01/16 03:32:14;;;;;;;13.80;6.65;;;3.60;99.90;;;;;;5044215;28;20052;-77
2023/01/16 03:34:48;;;;;;;17.02;7.72;;;3.60;99.90;;;;;;5043993;28;20045;-77
2023/01/16 03:37:22;;;;;;;14.63;7.82;;;3.50;99.90;;;;;;5040907;28;20536;-77
2023/01/16 03:39:51;;;;;;;;;;;3.60;99.90;;;;;;5041859;28;20492;-77
2023/01/16 03:42:28;;;;;;;16.27;7.28;;;3.70;99.90;;;;;;5041173;28;19917;-78
2023/01/16 03:44:59;;;;;;;16.25;8.05;;;3.60;99.90;;;;;;5044760;28;20053;-78
2023/01/16 03:47:42;;;;;;;15.57;8.32;;;3.80;99.90;;;;;;5040493;28;20040;-77
2023/01/16 03:50:12;;;;;;;17.90;8.18;;;3.80;99.90;;;;;;5038740;28;20033;-77
2023/01/16 03:52:43;;;;;;;16.73;8.20;;;3.80;99.90;;;;;;5038753;28;20165;-77
2023/01/16 03:55:21;;;;;;;13.38;8.07;;;3.90;99.90;;;;;;5037750;28;20049;-77
2023/01/16 03:57:54;;;;;;;14.15;8.70;;;4.00;99.90;;;;;;5043826;28;20049;-77
2023/01/16 04:00:21;;;;;;;15.73;8.80;;;4.00;99.90;;;;;;5042354;28;20052;-77
2023/01/16 04:02:54;;;;;;;17.48;9.45;;;4.00;99.90;;;;;;5042600;28;20037;-78
2023/01/16 04:05:34;;;;;;;14.70;9.35;;;4.10;99.90;;;;;;5041670;28;20103;-78
2023/01/16 04:08:11;;;;;;;14.43;8.70;;;4.10;99.90;;;;;;5043425;28;20049;-78
2023/01/16 04:10:41;;;;;;;15.40;9.35;;;4.20;99.90;;;;;;5042294;28;20052;-78
2023/01/16 04:13:10;;;;;;;14.50;9.02;;;4.10;99.90;;;;;;5041115;28;20056;-78
2023/01/16 04:15:43;;;;;;;18.60;10.70;;;4.30;99.90;;;;;;5042585;28;20041;-77
2023/01/16 04:18:09;;;;;;;20.73;10.27;;;4.10;99.90;;;;;;5043530;28;20056;-77
2023/01/16 04:20:37;;;;;;;21.50;11.10;;;4.20;99.90;;;;;;5041348;28;20045;-78
2023/01/16 04:23:03;;;;;;;18.90;9.25;;;4.20;99.90;;;;;;5038374;28;20190;-77
2023/01/16 04:25:28;;;;;;;21.00;10.82;;;4.40;99.90;;;;;;5044893;28;20617;-77
2023/01/16 04:27:54;;;;;;;22.23;10.50;;;4.40;99.90;;;;;;5038734;28;21839;-77
2023/01/16 04:30:20;;;;;;;17.45;11.02;;;4.50;99.90;;;;;;5043247;28;21676;-77
2023/01/16 04:32:45;;;;;;;22.30;11.77;;;4.40;99.90;;;;;;5043995;28;20048;-77
2023/01/16 04:35:11;;;;;;;22.83;12.35;;;4.40;99.90;;;;;;5038520;28;20033;-77
2023/01/16 04:37:37;;;;;;;19.90;11.68;;;4.50;99.90;;;;;;5039509;28;20136;-78
2023/01/16 04:40:04;;;;;;;18.40;11.73;;;4.40;99.90;;;;;;5037852;28;20128;-77
2023/01/16 04:42:30;;;;;;;23.63;12.15;;;4.40;99.90;;;;;;5040915;28;20037;-77
2023/01/16 04:44:55;;;;;;;21.55;11.63;;;4.40;99.90;;;;;;5037546;28;20052;-77
2023/01/16 04:47:21;;;;;;;23.92;12.27;;;4.50;99.90;;;;;;5035049;28;20055;-76
2023/01/16 04:49:47;;;;;;;24.98;11.80;;;4.50;99.90;;;;;;5041730;28;20672;-77
2023/01/16 04:52:13;;;;;;;25.40;11.38;;;4.40;99.90;;;;;;5038072;28;20053;-77
2023/01/16 04:54:38;;;;;;;24.35;11.65;;;4.50;99.90;;;;;;5043316;28;20041;-77
2023/01/16 04:57:04;;;;;;;20.45;11.73;;;4.50;99.90;;;;;;5043067;28;20044;-78
2023/01/16 04:59:30;;;;;;;22.67;12.02;;;4.40;99.90;;;;;;5040316;28;20060;-78
2023/01/16 05:01:56;;;;;;;18.88;12.45;;;4.50;99.90;;;;;;5040747;28;20155;-78
2023/01/16 05:04:22;;;;;;;26.13;12.38;;;4.50;99.90;;;;;;5042047;28;20129;-77
2023/01/16 05:06:47;;;;;;;24.23;12.70;;;4.40;99.90;;;;;;5042437;28;20052;-77
2023/01/16 05:09:13;;;;;;;25.13;13.60;;;4.40;99.90;;;;;;5035893;28;20141;-77
2023/01/16 05:11:39;;;;;;;20.52;12.48;;;4.40;99.90;;;;;;5040125;28;20444;-77
2023/01/16 05:14:07;;;;;;;22.88;13.77;;;4.40;99.90;;;;;;5043258;28;20063;-78
2023/01/16 05:16:38;;;;;;;21.55;13.30;;;4.30;99.90;;;;;;5056561;28;20057;-77
2023/01/16 05:19:04;;;;;;;27.33;13.77;;;4.30;99.90;;;;;;5043210;28;20120;-78
2023/01/16 05:21:30;;;;;;;27.23;14.20;;;4.30;99.90;;;;;;5041543;28;20052;-77
2023/01/16 05:23:56;;;;;;;25.15;13.57;;;4.30;99.90;;;;;;5041899;28;20049;-78
2023/01/16 05:26:21;;;;;;;23.20;13.43;;;4.20;99.90;;;;;;5039638;28;20048;-77
2023/01/16 05:28:47;;;;;;;25.60;14.68;;;4.30;99.90;;;;;;5041442;28;20045;-78
2023/01/16 05:31:13;;;;;;;29.67;16.15;;;4.20;99.90;;;;;;5040568;28;20135;-78
2023/01/16 05:33:38;;;;;;;28.60;14.32;;;4.20;99.90;;;;;;5040402;28;20037;-78
2023/01/16 05:36:06;;;;;;;28.20;12.80;;;4.10;99.90;;;;;;5047674;28;20068;-77
2023/01/16 05:38:33;;;;;;;24.25;13.23;;;4.00;99.90;;;;;;5050102;28;20418;-78
2023/01/16 05:40:59;;;;;;;22.42;13.52;;;4.00;99.90;;;;;;5038122;28;20115;-78
2023/01/16 05:43:25;;;;;;;27.45;14.07;;;4.00;99.90;;;;;;5046416;28;20064;-78
2023/01/16 05:45:51;;;;;;;20.75;13.27;;;3.90;99.90;;;;;;5045633;28;20052;-77
2023/01/16 05:48:17;;;;;;;29.73;14.40;;;3.90;99.90;;;;;;5043332;28;20045;-77
2023/01/16 05:50:42;;;;;;;33.67;14.05;;;3.80;99.90;;;;;;5043397;28;20048;-78
2023/01/16 05:53:08;;;;;;;25.35;13.85;;;3.90;99.90;;;;;;5045113;28;20099;-78
2023/01/16 05:55:45;;;;;;;28.42;15.80;;;3.80;99.90;;;;;;5045662;28;20415;-77
2023/01/16 05:58:12;;;;;;;34.50;17.30;;;3.80;99.90;;;;;;5042131;28;20047;-78
2023/01/16 06:00:39;;;;;;;30.58;17.25;;;3.90;99.90;;;;;;5043737;28;20037;-78
2023/01/16 06:03:05;;;;;;;31.05;16.90;;;3.90;99.90;;;;;;5042717;28;20040;-78
2023/01/16 06:05:31;;;;;;;32.22;18.77;;;3.90;99.90;;;;;;5044136;28;20044;-79
2023/01/16 06:07:57;;;;;;;29.83;19.58;;;4.00;99.90;;;;;;5041415;28;20474;-79
2023/01/16 06:10:24;;;;;;;31.55;18.40;;;4.00;99.90;;;;;;5044352;28;20041;-79
2023/01/16 06:12:49;;;;;;;32.78;17.67;;;4.00;99.90;;;;;;5047382;28;21378;-79
2023/01/16 06:15:15;;;;;;;27.65;15.40;;;4.00;99.90;;;;;;5047276;28;20901;-78
2023/01/16 06:17:41;;;;;;;27.98;15.63;;;4.10;99.90;;;;;;5042426;28;20037;-78
2023/01/16 06:20:08;;;;;;;30.50;15.60;;;4.00;99.90;;;;;;5043331;28;20045;-78
2023/01/16 06:22:33;;;;;;;30.02;15.85;;;4.00;99.90;;;;;;5046333;28;20036;-78
2023/01/16 06:25:00;;;;;;;32.22;16.40;;;4.00;99.90;;;;;;5044497;28;20437;-78
2023/01/16 06:27:26;;;;;;;39.30;22.73;;;4.00;99.90;;;;;;5040812;28;20595;-78
2023/01/16 06:29:52;;;;;;;44.13;24.60;;;4.00;99.90;;;;;;5041274;28;20041;-79
2023/01/16 06:32:18;;;;;;;34.35;18.02;;;4.10;99.90;;;;;;5041200;28;20036;-79
2023/01/16 06:34:44;;;;;;;33.33;16.42;;;3.90;99.90;;;;;;5039345;28;20448;-77
2023/01/16 06:37:10;;;;;;;25.23;14.35;;;3.90;99.90;;;;;;5037114;28;20474;-77
2023/01/16 06:39:35;;;;;;;22.77;13.43;;;3.90;99.90;;;;;;5043348;28;20048;-80
2023/01/16 06:42:03;;;;;;;27.38;13.27;;;3.90;99.90;;;;;;5041829;28;20033;-79
2023/01/16 06:44:29;;;;;;;27.02;13.30;;;3.70;99.90;;;;;;5042971;28;20037;-78
2023/01/16 06:46:54;;;;;;;23.95;13.85;;;3.70;99.90;;;;;;5038423;28;20373;-79
2023/01/16 06:49:21;;;;;;;27.52;14.73;;;3.80;99.90;;;;;;5044016;28;20476;-78
2023/01/16 06:51:49;;;;;;;30.52;14.52;;;3.80;99.90;;;;;;5048671;28;20045;-81
2023/01/16 06:54:14;;;;;;;25.60;13.32;;;3.70;99.90;;;;;;5031660;28;20515;-77
2023/01/16 06:56:40;;;;;;;23.73;13.38;;;3.80;99.90;;;;;;5037818;28;20047;-72
2023/01/16 06:59:06;;;;;;;23.48;12.00;;;3.70;99.90;;;;;;5041620;28;20053;-71
2023/01/16 07:01:31;;;;;;;18.95;11.77;;;3.60;99.90;;;;;;5040851;28;20075;-70
2023/01/16 07:03:57;;;;;;;24.67;12.30;;;3.60;99.90;;;;;;5040778;28;20142;-69
2023/01/16 07:06:22;;;;;;;28.08;11.90;;;3.60;99.90;;;;;;5040980;28;20041;-69
2023/01/16 07:08:50;;;;;;;25.52;12.00;;;3.50;99.90;;;;;;5044410;28;20644;-69
2023/01/16 07:11:16;;;;;;;21.58;11.57;;;3.60;99.90;;;;;;5040391;28;20063;-70
2023/01/16 07:13:42;;;;;;;30.55;12.70;;;3.60;99.90;;;;;;5040908;28;20479;-70
2023/01/16 07:24:31;;;;;;;18.60;12.05;;;3.70;99.90;;;;;;5040934;28;20048;-71
2023/01/16 07:27:01;;;;;;;26.02;11.93;;;3.70;99.90;;;;;;5038113;28;20044;-69
2023/01/16 07:29:29;;;;;;;22.02;11.20;;;3.70;99.90;;;;;;5038107;28;20042;-69
2023/01/16 07:31:56;;;;;;;20.83;11.18;;;3.70;99.90;;;;;;5041731;28;20073;-69
2023/01/16 07:34:22;;;;;;;21.50;11.05;;;3.50;99.90;;;;;;5042905;28;20056;-69
2023/01/16 07:36:48;;;;;;;20.90;10.75;;;3.60;99.90;;;;;;5043505;28;20040;-77
2023/01/16 07:39:13;;;;;;;19.58;10.55;;;3.60;99.90;;;;;;5040997;28;20048;-77
2023/01/16 07:41:39;;;;;;;19.17;9.77;;;3.50;99.90;;;;;;5037769;28;20116;-79
2023/01/16 07:44:06;;;;;;;22.25;10.43;;;3.60;99.90;;;;;;5042693;28;20048;-78
2023/01/16 07:46:32;;;;;;;21.48;9.95;;;3.60;99.90;;;;;;5039677;28;20057;-77
2023/01/16 07:48:57;;;;;;;20.80;9.90;;;3.50;99.90;;;;;;5036895;28;20052;-77
2023/01/16 07:51:24;;;;;;;17.05;9.38;;;3.60;99.90;;;;;;5040258;28;20133;-77
2023/01/16 07:53:49;;;;;;;20.42;9.38;;;3.60;99.90;;;;;;5038712;28;20114;-77
2023/01/16 07:56:15;;;;;;;19.58;8.07;;;3.50;99.90;;;;;;5037714;28;20488;-76
2023/01/16 07:58:42;;;;;;;16.95;8.02;;;3.40;99.90;;;;;;5039494;28;20091;-77
2023/01/16 08:01:09;;;;;;;15.20;7.70;;;3.40;99.90;;;;;;5040811;28;20061;-76
2023/01/16 08:03:35;;;;;;;17.77;6.97;;;3.50;99.90;;;;;;5036596;28;20041;-77
2023/01/16 08:06:02;;;;;;;14.73;7.22;;;3.50;99.90;;;;;;5036112;28;20047;-78
2023/01/16 08:08:28;;;;;;;15.75;7.15;;;3.50;99.90;;;;;;5038581;28;20095;-76
2023/01/16 08:10:59;;;;;;;16.02;6.75;;;3.40;99.90;;;;;;5034243;28;20115;-77
2023/01/16 08:13:26;;;;;;;10.80;6.50;;;3.50;99.90;;;;;;5041855;28;20041;-77
2023/01/16 08:15:51;;;;;;;16.55;8.32;;;3.60;99.90;;;;;;5040607;28;20428;-77
2023/01/16 08:18:18;;;;;;;18.58;7.30;;;3.50;99.90;;;;;;5037266;28;20041;-79
2023/01/16 08:20:44;;;;;;;20.05;8.00;;;3.50;99.90;;;;;;5036503;28;20076;-76
2023/01/16 08:23:11;;;;;;;16.40;7.13;;;3.60;99.90;;;;;;5037521;28;20041;-78
2023/01/16 08:25:37;;;;;;;20.75;6.53;;;3.60;99.90;;;;;;5040451;28;20102;-77
2023/01/16 08:28:03;;;;;;;13.77;6.50;;;3.60;99.90;;;;;;5033701;28;20045;-76
2023/01/16 08:30:29;;;;;;;16.75;7.18;;;3.60;99.90;;;;;;5038949;28;20041;-77
2023/01/16 08:32:59;;;;;;;11.32;5.88;;;3.60;99.90;;;;;;5040701;28;20103;-78
2023/01/16 08:35:25;;;;;;;13.93;5.97;;;3.70;99.90;;;;;;5040005;28;20535;-78
2023/01/16 08:37:51;;;;;;;19.50;6.60;;;3.60;99.90;;;;;;5039726;28;20049;-77
2023/01/16 08:40:17;;;;;;;14.55;5.57;;;3.70;99.90;;;;;;5039453;28;20075;-77
2023/01/16 08:53:44;;;;;;;12.18;6.80;;;3.80;99.90;;;;;;5036467;28;20139;-78
2023/01/16 08:56:09;;;;;;;13.38;5.22;;;3.80;99.90;;;;;;5037063;28;20472;-79
2023/01/16 08:58:35;;;;;;;16.30;5.78;;;3.90;99.90;;;;;;5038467;28;20053;-78
2023/01/16 09:01:00;;;;;;;12.00;4.95;;;3.90;99.90;;;;;;5039838;28;20033;-77
2023/01/16 09:03:26;;;;;;;16.05;5.28;;;3.80;99.90;;;;;;5038453;28;20126;-77
2023/01/16 09:05:52;;;;;;;12.93;5.32;;;3.90;99.90;;;;;;5039598;28;20507;-78
2023/01/16 09:08:17;;;;;;;10.98;5.35;;;3.90;99.90;;;;;;5037480;28;20084;-77
2023/01/16 09:13:48;;;;;;;12.55;5.47;;;3.90;99.90;;;;;;5037095;28;20053;-77
2023/01/16 09:16:13;;;;;;;14.15;4.53;;;4.00;99.90;;;;;;5043997;28;20105;-77
2023/01/16 09:18:38;;;;;;;12.82;5.40;;;4.00;99.90;;;;;;5037384;28;20099;-77
2023/01/16 09:21:04;;;;;;;10.85;5.35;;;4.00;99.90;;;;;;5043837;28;20932;-78
2023/01/16 09:23:30;;;;;;;15.63;5.65;;;4.00;99.90;;;;;;5042537;28;20064;-78
2023/01/16 09:25:55;;;;;;;15.43;5.30;;;4.00;99.90;;;;;;5042337;28;20049;-75
2023/01/16 09:28:21;;;;;;;12.05;5.93;;;4.10;99.90;;;;;;5042395;28;20049;-79
2023/01/16 09:30:46;;;;;;;16.27;6.20;;;4.10;99.90;;;;;;5043204;28;20512;-78
2023/01/16 09:33:12;;;;;;;13.55;5.65;;;4.10;99.90;;;;;;5043697;28;20041;-78
2023/01/16 09:35:38;;;;;;;13.93;5.93;;;4.00;99.90;;;;;;5042327;28;20080;-78
2023/01/16 09:38:03;;;;;;;12.60;6.57;;;4.10;99.90;;;;;;5045287;28;20041;-77
2023/01/16 09:40:30;;;;;;;17.88;6.75;;;4.10;99.90;;;;;;5040501;28;20051;-76
2023/01/16 09:43:37;;;;;;;15.60;6.35;;;4.10;99.90;;;;;;5038759;28;20053;-77
2023/01/16 09:46:25;;;;;;;11.57;5.10;;;4.20;99.90;;;;;;5018152;28;20532;-77
2023/01/16 09:48:55;;;;;;;13.23;5.55;;;4.20;99.90;;;;;;5043608;28;20045;-77
2023/01/16 09:51:35;;;;;;;12.60;5.10;;;4.10;99.90;;;;;;5042288;28;20071;-78
2023/01/16 09:59:41;;;;;;;9.95;5.68;;;4.10;99.90;;;;;;5046220;28;20045;-78
2023/01/16 10:02:32;;;;;;;18.05;6.18;;;4.20;99.90;;;;;;5043168;28;20536;-76
2023/01/16 10:05:04;;;;;;;11.77;6.03;;;4.10;99.90;;;;;;5041012;28;20028;-77
2023/01/16 10:07:47;;;;;;;10.85;5.55;;;4.10;99.90;;;;;;5042406;28;20048;-77
2023/01/16 10:10:36;;;;;;;12.63;5.50;;;4.30;99.90;;;;;;5043660;28;20057;-79
2023/01/16 10:13:13;;;;;;;12.80;6.00;;;4.30;99.90;;;;;;4995391;28;20416;-79
2023/01/16 10:16:03;;;;;;;12.27;5.72;;;4.20;99.90;;;;;;5040534;28;20045;-81
2023/01/16 10:19:09;;;;;;;13.02;6.35;;;4.20;99.90;;;;;;5039365;28;20128;-80
2023/01/16 10:21:42;;;;;;;13.07;6.00;;;4.20;99.90;;;;;;5042491;28;20632;-81
2023/01/16 10:24:20;;;;;;;11.52;5.05;;;4.10;99.90;;;;;;5038940;28;20065;-81
2023/01/16 10:27:00;;;;;;;9.68;5.28;;;4.30;99.90;;;;;;5040103;28;20091;-79
2023/01/16 10:29:36;;;;;;;12.13;4.85;;;4.10;99.90;;;;;;5044137;28;20036;-80
2023/01/16 10:32:24;;;;;;;11.65;5.32;;;4.20;99.90;;;;;;5042781;28;20037;-80
2023/01/16 10:35:03;;;;;;;11.75;4.82;;;4.10;99.90;;;;;;5044940;28;20118;-81
2023/01/16 10:37:30;;;;;;;6.55;4.10;;;4.20;99.90;;;;;;5040366;28;20049;-80
2023/01/16 10:39:59;;;;;;;13.00;5.35;;;4.20;99.90;;;;;;5041601;28;20118;-82
2023/01/16 10:50:59;;;;;;;4.53;2.50;;;3.90;99.90;;;;;;5042165;28;20053;-81
2023/01/16 10:53:25;;;;;;;6.88;3.22;;;3.90;99.90;;;;;;5041325;28;20052;-80
2023/01/16 10:55:52;;;;;;;5.50;2.58;;;4.00;99.90;;;;;;5040760;28;20046;-82
2023/01/16 10:58:30;;;;;;;5.50;2.97;;;3.80;99.90;;;;;;5036952;28;20064;-81
2023/01/16 11:01:06;;;;;;;4.13;2.35;;;3.80;99.90;;;;;;5040292;28;20041;-83
2023/01/16 11:03:34;;;;;;;5.60;2.28;;;3.80;99.90;;;;;;5034229;28;20045;-84
2023/01/16 11:06:08;;;;;;;6.80;2.60;;;3.70;99.90;;;;;;5037687;28;20053;-81
2023/01/16 11:08:35;;;;;;;7.35;2.30;;;3.70;99.90;;;;;;5037307;28;20512;-83
2023/01/16 11:11:01;;;;;;;4.20;2.30;;;3.70;99.90;;;;;;5040864;28;20059;-83
2023/01/16 11:18:58;;;;;;;5.43;2.40;;;3.70;99.90;;;;;;5037074;28;20053;-84
2023/01/16 11:21:31;;;;;;;4.38;2.17;;;3.70;99.90;;;;;;5037511;28;20084;-84
2023/01/16 11:24:19;;;;;;;3.65;2.03;;;3.60;99.90;;;;;;5040249;28;20056;-83
2023/01/16 11:26:50;;;;;;;3.30;1.92;;;3.70;99.90;;;;;;5038805;28;20109;-82
2023/01/16 11:29:17;;;;;;;3.17;1.58;;;3.50;99.90;;;;;;5038301;28;20053;-83
2023/01/16 11:31:49;;;;;;;2.53;1.60;;;3.60;99.90;;;;;;5037792;28;20038;-83
2023/01/16 11:34:15;;;;;;;3.17;2.25;;;3.60;99.90;;;;;;5039142;28;20045;-82
2023/01/16 11:36:42;;;;;;;9.00;2.80;;;3.50;99.90;;;;;;5039824;28;20072;-82
2023/01/16 11:39:23;;;;;;;4.78;2.42;;;3.50;99.90;;;;;;5042508;28;20029;-81
2023/01/16 11:41:51;;;;;;;3.25;1.95;;;3.50;99.90;;;;;;5044717;28;20056;-82
2023/01/16 11:47:16;;;;;;;3.30;1.83;;;3.50;99.90;;;;;;5047467;28;20040;-81
2023/01/16 11:49:48;;;;;;;3.95;2.20;;;3.40;99.90;;;;;;5041523;28;20052;-77
2023/01/16 11:52:26;;;;;;;2.75;1.80;;;3.50;99.90;;;;;;5053466;28;20040;-84
2023/01/16 11:55:03;;;;;;;3.83;1.80;;;3.50;99.90;;;;;;5058188;28;20502;-83
2023/01/16 11:57:43;;;;;;;5.40;2.60;;;3.50;99.90;;;;;;5052493;28;20045;-82
2023/01/16 12:00:24;;;;;;;6.13;2.97;;;3.40;99.90;;;;;;5052757;28;20036;-77
2023/01/16 12:03:11;;;;;;;6.75;3.58;;;3.50;99.90;;;;;;5047677;28;20660;-83
2023/01/16 12:06:15;;;;;;;7.00;3.38;;;3.50;99.90;;;;;;5059395;28;20064;-81
2023/01/16 12:09:12;;;;;;;5.70;3.50;;;3.60;99.90;;;;;;5025137;28;20077;-81
2023/01/16 12:11:55;;;;;;;6.30;3.60;;;3.50;99.90;;;;;;5053420;28;20081;-82
2023/01/16 12:14:21;;;;;;;3.58;2.20;;;3.50;99.90;;;;;;5055868;28;20049;-81
2023/01/16 12:17:21;;;;;;;4.45;2.38;;;3.50;99.90;;;;;;5052131;28;20048;-82
2023/01/16 12:20:09;;;;;;;3.78;2.13;;;3.50;99.90;;;;;;5053243;28;20048;-81
2023/01/16 12:22:43;;;;;;;3.85;2.10;;;3.50;99.90;;;;;;5056007;28;20064;-81
2023/01/16 12:25:28;;;;;;;3.28;1.90;;;3.40;99.90;;;;;;5052998;28;20040;-82
2023/01/16 12:28:21;;;;;;;4.47;2.25;;;3.50;99.90;;;;;;5058522;28;20048;-81
2023/01/16 12:31:35;;;;;;;4.60;2.22;;;3.40;99.90;;;;;;5047646;28;20053;-82
2023/01/16 12:34:18;;;;;;;3.10;1.95;;;3.60;99.90;;;;;;5051484;28;20049;-77
2023/01/16 12:37:09;;;;;;;3.78;2.33;;;3.50;99.90;;;;;;5054501;28;20067;-83
2023/01/16 12:40:05;;;;;;;5.20;2.50;;;3.50;99.90;;;;;;5052847;28;20048;-82
2023/01/16 12:45:49;;;;;;;2.75;1.85;;;3.60;99.90;;;;;;5052801;28;20046;-81
2023/01/16 12:48:53;;;;;;;3.65;2.40;;;3.60;99.90;;;;;;5047337;28;20056;-82
2023/01/16 12:51:24;;;;;;;5.03;2.20;;;3.70;99.90;;;;;;4978798;28;20141;-83
2023/01/16 12:54:20;;;;;;;5.00;2.35;;;3.50;99.90;;;;;;5033498;28;20045;-81
2023/01/16 12:57:23;;;;;;;5.40;2.75;;;3.60;99.90;;;;;;5048855;28;20076;-81
2023/01/16 12:59:51;;;;;;;4.40;2.70;;;3.70;99.90;;;;;;5046950;28;20377;-82
2023/01/16 13:02:45;;;;;;;4.90;3.15;;;3.70;99.90;;;;;;5054004;28;20041;-81
2023/01/16 13:05:27;;;;;;;4.53;3.00;;;3.70;99.90;;;;;;5055596;28;20047;-80
2023/01/16 13:08:17;;;;;;;3.92;2.90;;;3.80;99.90;;;;;;5050093;28;20063;-81
2023/01/16 13:13:55;;;;;;;6.32;3.10;;;3.70;99.90;;;;;;5039368;28;20048;-81
2023/01/16 13:16:46;;;;;;;5.95;3.20;;;3.70;99.90;;;;;;5041424;28;20061;-82
2023/01/16 13:19:24;;;;;;;6.15;3.60;;;3.80;99.90;;;;;;5024381;28;20055;-82
2023/01/16 13:22:22;;;;;;;6.97;3.83;;;3.80;99.90;;;;;;5044821;28;20056;-82
2023/01/16 13:25:14;;;;;;;5.90;3.45;;;3.80;99.90;;;;;;5041080;28;20049;-83
2023/01/16 13:27:45;;;;;;;5.32;4.32;;;3.90;99.90;;;;;;5040542;28;20061;-82
2023/01/16 13:30:16;;;;;;;8.10;3.92;;;3.90;99.90;;;;;;5044089;28;20053;-82
2023/01/16 13:32:56;;;;;;;6.15;4.25;;;3.90;99.90;;;;;;5041732;28;20068;-82
2023/01/16 13:35:48;;;;;;;6.78;4.60;;;4.00;99.90;;;;;;5044709;28;20707;-83
2023/01/16 13:38:40;;;;;;;5.57;3.90;;;4.10;99.90;;;;;;5043476;28;20503;-82
2023/01/16 13:41:29;;;;;;;10.15;4.75;;;4.00;99.90;;;;;;5012861;28;20539;-82
2023/01/16 13:46:48;;;;;;;7.93;4.80;;;4.10;99.90;;;;;;5042880;28;20048;-82
2023/01/16 13:49:24;;;;;;;7.68;4.15;;;4.00;99.90;;;;;;5039491;28;20045;-81
2023/01/16 13:51:51;;;;;;;9.20;4.60;;;4.00;99.90;;;;;;5032238;28;20063;-80
2023/01/16 13:54:26;;;;;;;8.18;4.68;;;4.20;99.90;;;;;;5042063;28;20041;-81
2023/01/16 13:57:01;;;;;;;7.75;4.93;;;4.20;99.90;;;;;;5047198;28;20036;-81
2023/01/16 13:59:37;;;;;;;6.75;5.07;;;4.20;99.90;;;;;;5041658;28;20098;-82
2023/01/16 14:02:26;;;;;;;7.47;4.68;;;4.10;99.90;;;;;;5041518;28;20037;-81
2023/01/16 14:05:06;;;;;;;5.15;3.72;;;4.10;99.90;;;;;;5060265;28;20048;-82
2023/01/16 14:10:45;;;;;;;4.95;3.45;;;4.20;99.90;;;;;;5066770;28;20116;-85
2023/01/16 14:13:23;;;;;;;5.68;4.10;;;4.20;99.90;;;;;;5043587;28;20607;-81